Save, Benin
Current Conditions -  °F | °C
As of 2:00 PM on Monday 20 Oct 2014 (Local Time) from DBBB Reporting Station
Broken Clouds Broken Clouds  
Wind Chill: 86°   Ceiling: 12000
Heat Index: 99°   Visibility: 6mi
Dew Point: 79°   Wind: 9mph
Humidity: 79%   Direction: 200°SSW
Pressure: 29.83"   Gusts: NA
Location:  8.03°N, 2.49°E
Report Text: DBBB 201300Z 20008KT 170V230 9999 SCT015 BKN120 30/26 Q1010 NOSIG
Loading
Personal Weather Stations






























Interactive Weather Map
Tropical Storm Tracking
New forecast layout! Learn more

10-Day Weather Forecast

Advertisements
Track Severe Weather on mobile